Time;durP1;ratioP1;P1;durP2;ratioP2;P2;SDS_P1;SDS_P2;PMS_P1;PMS_P2;Temp;Humidity;BMP_temperature;BMP_pressure;BME280_temperature;BME280_humidity;BME280_pressure;Samples;Min_cycle;Max_cycle;Signal;HPM_P1;HPM_P2
2022/09/24 00:01:30;;;;;;;11.20;7.72;;;11.40;99.90;;;;;;4974471;28;20087;-66
2022/09/24 00:04:03;;;;;;;12.90;8.27;;;11.30;99.90;;;;;;4974260;28;20053;-65
2022/09/24 00:06:35;;;;;;;11.10;8.30;;;11.40;99.90;;;;;;4990591;28;20412;-66
2022/09/24 00:09:03;;;;;;;11.00;7.95;;;11.40;99.90;;;;;;4991985;28;20050;-65
2022/09/24 00:11:31;;;;;;;12.32;8.32;;;11.40;99.90;;;;;;4991369;28;20050;-64
2022/09/24 00:13:58;;;;;;;9.70;7.50;;;11.40;99.90;;;;;;5004624;28;20034;-65
2022/09/24 00:16:30;;;;;;;9.05;7.82;;;11.40;99.90;;;;;;4987661;28;20042;-65
2022/09/24 00:18:57;;;;;;;9.65;7.60;;;11.40;99.90;;;;;;4971925;28;20050;-65
2022/09/24 00:21:28;;;;;;;9.30;7.70;;;11.40;99.90;;;;;;5005792;28;20140;-65
2022/09/24 00:23:57;;;;;;;10.65;8.07;;;11.40;99.90;;;;;;4991339;28;20547;-65
2022/09/24 00:29:14;;;;;;;10.77;8.32;;;11.40;99.90;;;;;;4989384;28;20058;-67
2022/09/24 00:31:41;;;;;;;8.73;7.75;;;11.40;99.90;;;;;;4989810;28;20049;-66
2022/09/24 00:34:09;;;;;;;11.85;8.20;;;11.40;99.90;;;;;;4991128;28;20657;-66
2022/09/24 00:36:37;;;;;;;9.68;8.30;;;11.40;99.90;;;;;;5006210;28;20050;-66
2022/09/24 00:39:05;;;;;;;9.60;7.57;;;11.30;99.90;;;;;;4974051;28;20415;-66
2022/09/24 00:41:35;;;;;;;8.98;7.90;;;11.30;99.90;;;;;;4989748;28;20118;-67
2022/09/24 00:44:41;;;;;;;10.95;8.80;;;11.30;99.90;;;;;;4984832;28;20453;-65
2022/09/24 00:47:20;;;;;;;14.43;8.30;;;11.40;99.90;;;;;;4988457;28;20042;-65
2022/09/24 00:49:49;;;;;;;14.90;8.27;;;11.40;99.90;;;;;;4984302;28;20061;-66
2022/09/24 00:52:17;;;;;;;10.90;7.95;;;11.40;99.90;;;;;;4991167;28;20046;-64
2022/09/24 00:54:45;;;;;;;10.20;7.55;;;11.30;99.90;;;;;;4973308;28;20111;-66
2022/09/24 00:57:13;;;;;;;9.98;7.78;;;11.40;99.90;;;;;;4992890;28;20054;-66
2022/09/24 00:59:42;;;;;;;10.82;7.85;;;11.30;99.90;;;;;;4993746;28;20038;-68
2022/09/24 01:02:10;;;;;;;10.90;8.32;;;11.30;99.90;;;;;;4994677;28;20112;-66
2022/09/24 01:04:38;;;;;;;8.65;7.38;;;11.30;99.90;;;;;;4993055;28;20054;-67
2022/09/24 01:07:05;;;;;;;10.60;7.63;;;11.30;99.90;;;;;;4992364;28;20057;-66
2022/09/24 01:09:33;;;;;;;8.05;6.82;;;11.30;99.90;;;;;;4991730;28;20065;-66
2022/09/24 01:12:17;;;;;;;12.00;8.50;;;11.30;99.90;;;;;;4994102;28;20050;-66
2022/09/24 01:15:35;;;;;;;10.82;7.93;;;11.20;99.90;;;;;;4992638;28;20039;-65
2022/09/24 01:18:21;;;;;;;9.52;7.40;;;11.20;99.90;;;;;;4949199;28;20049;-67
2022/09/24 01:20:51;;;;;;;9.43;7.32;;;11.20;99.90;;;;;;4994283;28;20038;-65
2022/09/24 01:23:49;;;;;;;10.68;8.20;;;11.20;99.90;;;;;;4992419;28;20492;-66
2022/09/24 01:26:27;;;;;;;14.27;7.60;;;11.20;99.90;;;;;;4992330;28;20425;-68
2022/09/24 01:29:16;;;;;;;11.95;8.10;;;11.20;99.90;;;;;;4979730;28;20081;-65
2022/09/24 01:32:11;;;;;;;11.90;7.85;;;11.10;99.90;;;;;;4979177;28;20041;-66
2022/09/24 01:34:46;;;;;;;10.93;7.60;;;11.20;99.90;;;;;;4989356;28;20042;-67
2022/09/24 01:37:17;;;;;;;10.32;7.63;;;11.20;99.90;;;;;;4972680;28;20142;-66
2022/09/24 01:39:46;;;;;;;9.98;7.82;;;11.20;99.90;;;;;;4987829;28;20038;-66
2022/09/24 01:42:14;;;;;;;10.60;8.30;;;11.10;99.90;;;;;;4976107;28;20050;-66
2022/09/24 01:44:43;;;;;;;12.50;8.48;;;11.10;99.90;;;;;;4995416;28;20502;-65
2022/09/24 01:47:22;;;;;;;11.80;8.52;;;11.10;99.90;;;;;;5007925;28;20493;-66
2022/09/24 01:49:52;;;;;;;13.73;8.27;;;11.00;99.90;;;;;;4993713;28;20054;-65
2022/09/24 01:52:25;;;;;;;13.43;8.35;;;11.00;99.90;;;;;;4979401;28;20504;-65
2022/09/24 01:54:55;;;;;;;15.27;8.80;;;11.00;99.90;;;;;;4985570;28;20035;-64
2022/09/24 01:57:28;;;;;;;12.85;8.15;;;11.00;99.90;;;;;;4975065;28;20061;-66
2022/09/24 02:00:01;;;;;;;11.80;7.68;;;11.00;99.90;;;;;;4991803;28;20053;-65
2022/09/24 02:02:44;;;;;;;13.50;8.52;;;11.00;99.90;;;;;;4992787;28;20504;-67
2022/09/24 02:05:30;;;;;;;13.05;8.55;;;11.00;99.90;;;;;;4983257;28;20299;-65
2022/09/24 02:08:07;;;;;;;15.43;9.32;;;11.00;99.90;;;;;;4982483;28;20058;-68
2022/09/24 02:10:55;;;;;;;14.57;8.02;;;11.00;99.90;;;;;;4992919;28;20042;-66
2022/09/24 02:13:25;;;;;;;13.65;8.27;;;10.90;99.90;;;;;;4975764;28;20053;-66
2022/09/24 02:15:57;;;;;;;10.63;7.28;;;10.90;99.90;;;;;;4993974;28;20048;-66
2022/09/24 02:18:31;;;;;;;13.35;8.30;;;10.90;99.90;;;;;;4989985;28;20351;-65
2022/09/24 02:21:02;;;;;;;13.95;7.95;;;10.90;99.90;;;;;;4991209;28;20117;-65
2022/09/24 02:23:32;;;;;;;11.95;7.90;;;10.90;99.90;;;;;;4992056;28;20046;-66
2022/09/24 02:26:03;;;;;;;14.55;8.20;;;10.80;99.90;;;;;;4981680;28;20548;-65
2022/09/24 02:28:32;;;;;;;11.27;7.75;;;10.80;99.90;;;;;;4989009;28;20047;-66
2022/09/24 02:31:21;;;;;;;11.50;7.60;;;10.80;99.90;;;;;;4993494;28;20046;-66
2022/09/24 02:36:39;;;;;;;11.75;7.70;;;10.70;99.90;;;;;;4990423;28;20496;-66
2022/09/24 02:39:07;;;;;;;11.13;7.18;;;10.70;99.90;;;;;;4990810;28;20050;-67
2022/09/24 02:41:35;;;;;;;9.93;7.40;;;10.70;99.90;;;;;;4990172;28;20057;-65
2022/09/24 02:44:02;;;;;;;11.45;7.40;;;10.70;99.90;;;;;;5007400;28;20448;-66
2022/09/24 02:46:30;;;;;;;11.45;6.93;;;10.70;99.90;;;;;;5005016;28;20101;-65
2022/09/24 02:48:57;;;;;;;10.00;6.97;;;10.70;99.90;;;;;;4991077;28;20059;-66
2022/09/24 02:51:24;;;;;;;8.77;6.55;;;10.70;99.90;;;;;;4975985;28;20080;-65
2022/09/24 02:53:52;;;;;;;10.75;7.50;;;10.70;99.90;;;;;;4989401;28;20101;-66
2022/09/24 02:56:19;;;;;;;10.27;6.80;;;10.70;99.90;;;;;;4985599;28;20524;-67
2022/09/24 02:58:46;;;;;;;11.00;6.93;;;10.70;99.90;;;;;;4992168;28;20046;-66
2022/09/24 03:01:14;;;;;;;7.97;6.57;;;10.70;99.90;;;;;;4991796;28;20046;-67
2022/09/24 03:03:41;;;;;;;8.63;6.53;;;10.70;99.90;;;;;;5006045;28;20450;-66
2022/09/24 03:06:09;;;;;;;16.15;7.30;;;10.70;99.90;;;;;;4982473;28;20038;-66
2022/09/24 03:08:37;;;;;;;10.18;7.13;;;10.70;99.90;;;;;;5000178;28;20069;-66
2022/09/24 03:11:04;;;;;;;21.08;7.57;;;10.70;99.90;;;;;;4991483;28;20512;-67
2022/09/24 03:13:31;;;;;;;11.32;6.93;;;10.70;99.90;;;;;;5005805;28;20070;-66
2022/09/24 03:15:59;;;;;;;9.80;6.65;;;10.60;99.90;;;;;;4990021;28;20425;-67
2022/09/24 03:18:26;;;;;;;9.05;6.13;;;10.60;99.90;;;;;;4991515;28;20448;-67
2022/09/24 03:21:03;;;;;;;8.63;6.60;;;10.60;99.90;;;;;;4980845;28;20066;-68
2022/09/24 03:23:30;;;;;;;15.95;7.18;;;10.60;99.90;;;;;;5002683;28;20038;-66
2022/09/24 03:25:57;;;;;;;11.98;6.95;;;10.60;99.90;;;;;;4986042;28;20045;-66
2022/09/24 03:28:25;;;;;;;7.80;6.28;;;10.60;99.90;;;;;;4976836;28;20528;-66
2022/09/24 03:30:59;;;;;;;8.88;6.75;;;10.60;99.90;;;;;;4971886;28;20162;-66
2022/09/24 03:33:42;;;;;;;8.23;6.35;;;10.50;99.90;;;;;;4992001;28;20078;-66
2022/09/24 03:36:16;;;;;;;12.70;6.97;;;10.50;99.90;;;;;;4991353;28;20493;-66
2022/09/24 03:38:45;;;;;;;9.07;6.30;;;10.50;99.90;;;;;;4991284;28;20046;-66
2022/09/24 03:41:12;;;;;;;9.80;6.75;;;10.50;99.90;;;;;;4975264;28;20456;-66
2022/09/24 03:43:40;;;;;;;9.40;6.13;;;10.60;99.90;;;;;;4991482;28;20133;-66
2022/09/24 03:46:09;;;;;;;13.35;7.28;;;10.60;99.90;;;;;;5001360;28;20046;-66
2022/09/24 03:48:38;;;;;;;8.80;6.30;;;10.60;99.90;;;;;;4989577;28;20088;-65
2022/09/24 03:51:09;;;;;;;10.13;7.25;;;10.60;99.90;;;;;;4990096;28;20054;-66
2022/09/24 03:53:37;;;;;;;10.37;6.70;;;10.60;99.90;;;;;;4968459;28;20141;-67
2022/09/24 03:56:06;;;;;;;10.40;6.35;;;10.60;99.90;;;;;;4972516;28;20054;-66
2022/09/24 03:58:37;;;;;;;9.23;6.78;;;10.60;99.90;;;;;;4988322;28;20158;-64
2022/09/24 04:01:06;;;;;;;9.52;6.75;;;10.60;99.90;;;;;;4990757;28;20073;-65
2022/09/24 04:03:34;;;;;;;11.85;6.20;;;10.60;99.90;;;;;;4990628;28;20070;-65
2022/09/24 04:06:02;;;;;;;11.23;6.80;;;10.60;99.90;;;;;;4992015;28;20112;-66
2022/09/24 04:08:30;;;;;;;9.02;6.32;;;10.60;99.90;;;;;;4989828;28;20050;-65
2022/09/24 04:10:58;;;;;;;8.25;6.60;;;10.60;99.90;;;;;;4988204;28;20046;-66
2022/09/24 04:13:25;;;;;;;9.13;6.05;;;10.50;99.90;;;;;;4989457;28;20072;-66
2022/09/24 04:15:53;;;;;;;15.07;6.32;;;10.50;99.90;;;;;;4961612;28;20050;-65
2022/09/24 04:18:21;;;;;;;11.68;6.72;;;10.40;99.90;;;;;;4976328;28;20046;-66
2022/09/24 04:20:48;;;;;;;11.15;6.50;;;10.40;99.90;;;;;;4986278;28;20073;-67
2022/09/24 04:23:16;;;;;;;7.35;6.35;;;10.40;99.90;;;;;;4990280;28;20054;-64
2022/09/24 04:25:43;;;;;;;10.57;6.93;;;10.40;99.90;;;;;;4971551;28;20051;-65
2022/09/24 04:28:10;;;;;;;8.30;6.00;;;10.40;99.90;;;;;;4986447;28;20042;-70
2022/09/24 04:30:38;;;;;;;10.68;6.63;;;10.40;99.90;;;;;;4976422;28;20441;-67
2022/09/24 04:33:06;;;;;;;9.32;7.00;;;10.30;99.90;;;;;;4972847;28;20042;-66
2022/09/24 04:35:37;;;;;;;8.98;6.57;;;10.30;99.90;;;;;;4991085;28;20097;-66
2022/09/24 04:38:05;;;;;;;9.65;6.50;;;10.20;99.90;;;;;;4990198;28;20096;-65
2022/09/24 04:40:32;;;;;;;8.63;6.63;;;10.10;99.90;;;;;;4990597;28;20050;-66
2022/09/24 04:43:02;;;;;;;9.52;6.30;;;10.00;99.90;;;;;;4988286;28;20057;-66
2022/09/24 04:45:29;;;;;;;9.52;6.78;;;10.00;99.90;;;;;;4976365;28;20185;-66
2022/09/24 04:47:57;;;;;;;9.60;7.45;;;9.90;99.90;;;;;;4986923;28;20050;-65
2022/09/24 04:50:27;;;;;;;11.15;6.63;;;9.80;99.90;;;;;;4990067;28;20046;-65
2022/09/24 04:52:55;;;;;;;10.68;7.07;;;9.80;99.90;;;;;;4985367;28;20046;-66
2022/09/24 04:55:22;;;;;;;15.95;6.70;;;9.70;99.90;;;;;;4988272;28;20037;-65
2022/09/24 04:57:50;;;;;;;9.85;6.88;;;9.70;99.90;;;;;;4971669;28;20145;-65
2022/09/24 05:00:20;;;;;;;11.38;7.22;;;9.60;99.90;;;;;;4988285;28;20042;-66
2022/09/24 05:02:54;;;;;;;9.07;6.78;;;9.60;99.90;;;;;;4981438;28;20454;-66
2022/09/24 05:05:22;;;;;;;9.43;6.80;;;9.60;99.90;;;;;;4982228;28;20054;-66
2022/09/24 05:07:50;;;;;;;9.57;6.40;;;9.60;99.90;;;;;;4978757;28;20104;-65
2022/09/24 05:10:18;;;;;;;11.18;6.95;;;9.50;99.90;;;;;;5001823;28;20114;-68
2022/09/24 05:12:45;;;;;;;11.63;7.68;;;9.60;99.90;;;;;;4977175;28;20137;-65
2022/09/24 05:15:12;;;;;;;10.93;7.65;;;9.60;99.90;;;;;;4978312;28;20057;-67
2022/09/24 05:17:39;;;;;;;13.43;7.97;;;9.60;99.90;;;;;;4987426;28;20497;-65
2022/09/24 05:20:10;;;;;;;9.77;6.82;;;9.70;99.90;;;;;;4986573;28;20421;-66
2022/09/24 05:22:45;;;;;;;7.90;6.53;;;9.70;99.90;;;;;;4989313;28;20054;-67
2022/09/24 05:25:13;;;;;;;9.38;6.72;;;9.70;99.90;;;;;;4989999;28;20066;-67
2022/09/24 05:27:52;;;;;;;8.52;6.82;;;9.70;99.90;;;;;;4974213;28;20054;-67
2022/09/24 05:30:21;;;;;;;11.55;7.47;;;9.70;99.90;;;;;;4986908;28;20047;-65
2022/09/24 05:32:51;;;;;;;12.27;6.97;;;9.70;99.90;;;;;;4989304;28;20086;-68
2022/09/24 05:35:22;;;;;;;9.50;7.43;;;9.70;99.90;;;;;;5006225;28;20517;-65
2022/09/24 05:37:52;;;;;;;11.57;7.47;;;9.80;99.90;;;;;;4991801;28;20047;-68
2022/09/24 05:43:07;;;;;;;12.00;7.18;;;9.90;99.90;;;;;;4988720;28;20125;-66
2022/09/24 05:45:34;;;;;;;10.02;6.47;;;9.90;99.90;;;;;;4976586;28;20056;-66
2022/09/24 05:48:02;;;;;;;8.48;6.60;;;10.00;99.90;;;;;;4983368;28;20084;-66
2022/09/24 05:50:29;;;;;;;9.93;6.50;;;10.10;99.90;;;;;;4965799;28;20054;-68
2022/09/24 05:52:57;;;;;;;11.70;6.95;;;10.10;99.90;;;;;;4998712;28;20142;-67
2022/09/24 05:55:24;;;;;;;8.80;6.80;;;10.10;99.90;;;;;;4984999;28;20046;-67
2022/09/24 05:58:09;;;;;;;9.48;6.68;;;10.10;99.90;;;;;;4991959;28;20045;-66
2022/09/24 06:00:36;;;;;;;9.20;7.15;;;10.20;99.90;;;;;;4993265;28;20114;-66
2022/09/24 06:03:15;;;;;;;9.10;7.25;;;10.20;99.90;;;;;;4993179;28;20061;-67
2022/09/24 06:05:50;;;;;;;9.85;7.35;;;10.30;99.90;;;;;;4992186;28;20069;-67
2022/09/24 06:08:19;;;;;;;11.13;7.25;;;10.30;99.90;;;;;;4989367;28;20046;-66
2022/09/24 06:10:47;;;;;;;13.23;7.78;;;10.40;99.90;;;;;;4992938;28;20060;-67
2022/09/24 06:13:19;;;;;;;14.57;7.70;;;10.50;99.90;;;;;;4993363;28;20477;-67
2022/09/24 06:15:47;;;;;;;17.35;8.43;;;10.50;99.90;;;;;;4988849;28;20038;-65
2022/09/24 06:18:14;;;;;;;11.85;7.97;;;10.50;99.90;;;;;;4990731;28;20508;-66
2022/09/24 06:20:42;;;;;;;14.27;8.68;;;10.50;99.90;;;;;;4991542;28;20042;-66
2022/09/24 06:23:09;;;;;;;10.00;7.28;;;10.50;99.90;;;;;;5007442;28;20516;-68
2022/09/24 06:25:37;;;;;;;9.23;7.32;;;10.60;99.90;;;;;;4990646;28;20050;-69
2022/09/24 06:28:04;;;;;;;8.57;6.85;;;10.60;99.90;;;;;;4988326;28;20424;-66
2022/09/24 06:30:37;;;;;;;8.80;7.07;;;10.70;99.90;;;;;;4991324;28;20049;-66
2022/09/24 06:33:07;;;;;;;8.30;7.10;;;10.80;99.90;;;;;;4991214;28;20523;-67
2022/09/24 06:35:36;;;;;;;9.80;7.00;;;10.80;99.90;;;;;;4981136;28;20034;-67
2022/09/24 06:38:05;;;;;;;10.75;7.55;;;10.90;99.90;;;;;;4991652;28;20516;-66
2022/09/24 06:40:33;;;;;;;10.45;7.55;;;11.00;99.90;;;;;;5009055;28;20504;-68
2022/09/24 06:43:08;;;;;;;10.90;7.40;;;11.10;99.90;;;;;;4976308;28;20116;-67
2022/09/24 06:45:36;;;;;;;11.07;7.55;;;11.20;99.90;;;;;;4982887;28;20035;-67
2022/09/24 06:48:04;;;;;;;11.27;7.43;;;11.30;99.90;;;;;;4986254;28;20046;-68
2022/09/24 06:50:33;;;;;;;9.68;7.78;;;11.40;99.90;;;;;;4991940;28;20042;-66
2022/09/24 06:53:04;;;;;;;9.93;7.22;;;11.60;99.90;;;;;;4990923;28;20100;-67
2022/09/24 06:55:33;;;;;;;;;;;11.70;99.90;;;;;;4987456;28;20038;-67
2022/09/24 06:58:04;;;;;;;10.55;7.93;;;11.80;99.90;;;;;;4983002;28;19932;-67
2022/09/24 07:00:33;;;;;;;9.68;7.55;;;12.00;99.90;;;;;;4992171;28;20046;-67
2022/09/24 07:03:00;;;;;;;10.55;8.00;;;12.20;99.90;;;;;;5007265;28;20054;-66
2022/09/24 07:05:28;;;;;;;14.10;7.90;;;12.30;99.90;;;;;;4990935;28;20532;-67
2022/09/24 07:07:55;;;;;;;10.55;8.43;;;12.40;99.90;;;;;;4990199;28;20444;-69
2022/09/24 07:10:24;;;;;;;9.40;7.32;;;12.60;99.90;;;;;;5009059;28;20054;-67
2022/09/24 07:12:51;;;;;;;11.35;8.55;;;12.80;99.90;;;;;;4992147;28;20512;-67
2022/09/24 07:15:18;;;;;;;12.15;8.27;;;13.00;99.90;;;;;;4994509;28;20034;-66
2022/09/24 07:17:46;;;;;;;13.05;8.38;;;13.30;99.90;;;;;;5002785;28;20408;-66
2022/09/24 07:20:13;;;;;;;9.98;7.53;;;13.40;99.90;;;;;;4990820;28;20049;-67
2022/09/24 07:22:42;;;;;;;19.02;12.50;;;13.60;99.90;;;;;;4986330;28;20042;-67
2022/09/24 07:25:10;;;;;;;11.63;9.70;;;13.80;99.90;;;;;;4964678;28;20133;-67
2022/09/24 07:27:38;;;;;;;10.32;7.78;;;13.80;99.90;;;;;;4985267;28;20074;-66
2022/09/24 07:30:08;;;;;;;13.02;8.43;;;13.80;99.90;;;;;;5003823;28;20050;-67
2022/09/24 07:32:35;;;;;;;14.55;8.55;;;13.90;99.90;;;;;;4988082;28;20467;-67
2022/09/24 07:35:03;;;;;;;9.45;8.18;;;13.90;99.90;;;;;;4984317;28;20046;-66
2022/09/24 07:37:32;;;;;;;10.60;8.60;;;13.90;99.90;;;;;;4978467;28;20122;-69
2022/09/24 07:39:59;;;;;;;10.05;8.55;;;14.00;99.90;;;;;;4985992;28;20093;-67
2022/09/24 07:42:27;;;;;;;10.50;8.82;;;14.00;99.90;;;;;;4988353;28;20061;-67
2022/09/24 07:44:59;;;;;;;11.75;9.07;;;14.10;99.90;;;;;;4998396;28;20048;-67
2022/09/24 07:47:27;;;;;;;11.32;8.68;;;14.10;99.90;;;;;;4988215;28;20141;-66
2022/09/24 07:49:55;;;;;;;10.25;7.75;;;14.30;99.90;;;;;;4978406;28;20050;-67
2022/09/24 07:52:22;;;;;;;10.40;8.27;;;14.40;99.90;;;;;;4982467;28;20050;-67
2022/09/24 07:54:51;;;;;;;12.35;8.48;;;14.50;99.90;;;;;;4997271;28;20042;-66
2022/09/24 07:57:18;;;;;;;10.80;8.48;;;14.60;99.90;;;;;;4997966;28;20046;-69
2022/09/24 07:59:45;;;;;;;12.95;9.05;;;14.70;99.90;;;;;;4989784;28;20100;-68
2022/09/24 08:02:17;;;;;;;12.43;8.98;;;14.80;99.90;;;;;;4974710;28;20523;-67
2022/09/24 08:04:45;;;;;;;10.93;8.15;;;14.90;99.90;;;;;;4981644;28;20046;-67
2022/09/24 08:07:13;;;;;;;12.10;9.45;;;15.20;99.90;;;;;;4985840;28;20046;-67
2022/09/24 08:09:40;;;;;;;11.27;8.63;;;15.20;99.90;;;;;;4965287;28;20070;-68
2022/09/24 08:12:08;;;;;;;10.75;8.15;;;15.40;99.90;;;;;;4975819;28;20505;-67
2022/09/24 08:14:37;;;;;;;12.60;8.70;;;15.60;99.90;;;;;;4990216;28;20050;-68
2022/09/24 08:17:04;;;;;;;11.85;8.73;;;15.80;99.90;;;;;;4983556;28;20416;-68
2022/09/24 08:19:32;;;;;;;11.82;8.73;;;15.90;99.90;;;;;;4988507;28;20153;-69
2022/09/24 08:21:59;;;;;;;16.63;9.55;;;16.00;99.90;;;;;;4985309;28;20509;-68
2022/09/24 08:24:27;;;;;;;11.65;8.90;;;16.20;99.90;;;;;;5004643;28;20045;-68
2022/09/24 08:26:55;;;;;;;10.98;9.38;;;16.30;99.90;;;;;;4976987;28;20046;-66
2022/09/24 08:29:22;;;;;;;11.63;9.45;;;16.50;99.90;;;;;;5006665;28;20046;-69
2022/09/24 08:31:49;;;;;;;11.93;8.90;;;16.50;99.90;;;;;;4970723;28;20073;-68
2022/09/24 08:34:17;;;;;;;15.95;10.20;;;16.60;99.90;;;;;;4997255;28;20046;-68
2022/09/24 08:36:45;;;;;;;12.10;8.90;;;16.60;99.90;;;;;;4981567;28;20042;-71
2022/09/24 08:39:14;;;;;;;11.43;9.70;;;16.40;99.90;;;;;;4983156;28;20046;-68
2022/09/24 08:41:54;;;;;;;12.20;9.35;;;16.30;99.90;;;;;;4988909;28;20055;-68
2022/09/24 08:47:41;;;;;;;11.50;9.88;;;16.60;99.90;;;;;;4989571;28;20046;-68
2022/09/24 08:50:20;;;;;;;10.80;9.65;;;16.70;99.90;;;;;;5000639;28;20054;-68
2022/09/24 08:53:01;;;;;;;13.48;9.60;;;16.80;99.90;;;;;;4987361;28;20061;-67
2022/09/24 08:55:34;;;;;;;12.60;9.45;;;16.90;99.90;;;;;;5000144;28;20055;-68
2022/09/24 08:58:07;;;;;;;13.40;10.20;;;17.10;99.90;;;;;;4979005;28;20046;-67
2022/09/24 09:00:59;;;;;;;13.75;10.23;;;17.10;99.90;;;;;;5004238;28;20038;-68
2022/09/24 09:03:39;;;;;;;10.40;9.30;;;17.20;99.90;;;;;;4971737;28;20054;-69
2022/09/24 09:06:15;;;;;;;11.13;9.93;;;17.20;99.90;;;;;;4980866;28;20046;-68
2022/09/24 09:08:55;;;;;;;12.88;10.10;;;17.50;99.90;;;;;;4982280;28;20042;-67
2022/09/24 09:11:40;;;;;;;15.88;10.77;;;17.50;99.90;;;;;;4991289;28;20129;-69
2022/09/24 09:14:16;;;;;;;16.08;10.48;;;17.50;99.90;;;;;;4995230;28;20051;-68
2022/09/24 09:17:30;;;;;;;12.80;9.85;;;17.40;99.90;;;;;;4978497;28;20049;-68
2022/09/24 09:20:02;;;;;;;14.77;10.50;;;17.60;99.90;;;;;;4990043;28;20135;-68
2022/09/24 09:22:40;;;;;;;15.27;10.23;;;17.90;99.90;;;;;;4993152;28;20043;-71
2022/09/24 09:25:27;;;;;;;14.40;10.05;;;18.00;99.90;;;;;;4984437;28;20053;-67
2022/09/24 09:28:03;;;;;;;13.30;9.95;;;17.60;99.90;;;;;;4987947;28;20042;-68
2022/09/24 09:30:42;;;;;;;11.68;9.55;;;18.10;99.90;;;;;;5001436;28;20061;-70
2022/09/24 09:33:29;;;;;;;10.43;9.32;;;18.50;99.90;;;;;;4975872;28;20046;-70
2022/09/24 09:36:17;;;;;;;14.60;10.20;;;18.60;99.90;;;;;;4992588;28;20046;-68
2022/09/24 09:39:17;;;;;;;11.65;10.15;;;18.60;99.90;;;;;;4992930;28;20045;-68
2022/09/24 09:41:56;;;;;;;11.82;9.80;;;18.50;99.90;;;;;;4993403;28;20047;-69
2022/09/24 09:44:27;;;;;;;14.20;11.23;;;18.70;99.90;;;;;;4987488;28;20465;-67
2022/09/24 09:47:34;;;;;;;13.07;10.57;;;19.10;99.90;;;;;;4991920;28;20254;-67
2022/09/24 09:50:34;;;;;;;16.40;11.13;;;19.10;99.90;;;;;;4991630;28;20061;-68
2022/09/24 09:53:04;;;;;;;17.10;10.85;;;19.20;99.90;;;;;;4992259;28;20042;-68
2022/09/24 09:55:35;;;;;;;13.15;10.98;;;19.40;99.90;;;;;;4950402;28;20050;-69
2022/09/24 09:58:14;;;;;;;13.18;10.43;;;19.60;99.90;;;;;;5007610;28;20057;-68
2022/09/24 10:00:42;;;;;;;12.63;10.48;;;19.70;99.90;;;;;;4991818;28;20122;-68
2022/09/24 10:03:30;;;;;;;13.18;10.85;;;19.60;99.90;;;;;;4999460;28;20065;-68
2022/09/24 10:06:04;;;;;;;12.55;11.25;;;19.60;99.90;;;;;;4975411;28;20050;-67
2022/09/24 10:08:32;;;;;;;12.05;10.73;;;19.30;99.90;;;;;;5004736;28;20058;-68
2022/09/24 10:11:01;;;;;;;14.45;10.40;;;19.10;99.90;;;;;;5006581;28;20077;-67
2022/09/24 10:13:32;;;;;;;13.77;11.70;;;18.90;99.90;;;;;;4992310;28;20049;-66
2022/09/24 10:16:07;;;;;;;12.85;11.38;;;19.00;99.90;;;;;;4992834;28;20446;-68
2022/09/24 10:18:48;;;;;;;14.13;11.73;;;18.70;99.90;;;;;;4983978;28;20089;-67
2022/09/24 10:21:34;;;;;;;15.40;10.77;;;18.90;99.90;;;;;;4991670;28;20061;-66
2022/09/24 10:24:05;;;;;;;14.05;11.23;;;19.10;99.90;;;;;;4986506;28;20086;-67
2022/09/24 10:26:41;;;;;;;13.23;11.52;;;19.10;99.90;;;;;;4975429;28;20138;-68
2022/09/24 10:32:24;;;;;;;14.98;11.38;;;19.20;99.90;;;;;;4983686;28;20050;-68
2022/09/24 10:35:17;;;;;;;13.15;11.10;;;19.20;99.90;;;;;;4989046;28;20042;-69
2022/09/24 10:37:56;;;;;;;12.50;10.95;;;19.00;99.90;;;;;;4981891;28;20043;-67
2022/09/24 10:40:30;;;;;;;13.25;11.70;;;19.10;99.90;;;;;;5006715;28;20124;-68
2022/09/24 10:43:01;;;;;;;18.30;12.68;;;18.90;99.90;;;;;;4993015;28;20047;-67
2022/09/24 10:45:50;;;;;;;12.83;10.50;;;18.70;99.90;;;;;;4992777;28;20065;-67
2022/09/24 10:48:25;;;;;;;14.50;10.65;;;18.60;99.90;;;;;;4988065;28;20054;-67
2022/09/24 10:51:15;;;;;;;12.07;10.18;;;18.70;99.90;;;;;;5007248;28;20042;-67
2022/09/24 10:54:20;;;;;;;14.27;11.48;;;18.70;99.90;;;;;;4987232;28;20065;-67
2022/09/24 10:56:52;;;;;;;14.40;10.90;;;18.60;99.90;;;;;;4987045;28;20034;-67
2022/09/24 10:59:58;;;;;;;15.88;11.15;;;18.70;99.90;;;;;;4988225;28;20374;-67
2022/09/24 11:02:47;;;;;;;15.90;11.73;;;18.50;99.90;;;;;;4988659;28;20085;-68
2022/09/24 11:05:23;;;;;;;13.30;11.75;;;18.60;99.90;;;;;;4980622;28;20050;-67
2022/09/24 11:08:02;;;;;;;13.25;11.13;;;18.90;99.90;;;;;;4990471;28;20512;-66
2022/09/24 11:10:50;;;;;;;21.85;13.50;;;19.00;99.90;;;;;;4988709;28;20488;-69
2022/09/24 11:13:38;;;;;;;16.73;12.02;;;18.70;99.90;;;;;;4990178;28;20062;-69
2022/09/24 11:16:24;;;;;;;12.05;10.77;;;18.30;99.90;;;;;;5005827;28;20164;-67
2022/09/24 11:19:02;;;;;;;13.63;11.27;;;19.10;99.90;;;;;;5000029;28;20081;-67
2022/09/24 11:21:57;;;;;;;13.43;11.73;;;19.70;99.90;;;;;;4990455;28;20450;-65
2022/09/24 11:24:58;;;;;;;18.00;12.38;;;20.10;99.90;;;;;;4990348;28;20434;-68
2022/09/24 11:28:02;;;;;;;13.68;12.15;;;19.80;99.90;;;;;;4982523;28;20424;-68
2022/09/24 11:30:47;;;;;;;14.20;11.70;;;19.90;99.90;;;;;;4989852;28;20397;-68
2022/09/24 11:33:36;;;;;;;13.65;11.70;;;20.60;99.90;;;;;;4986620;28;20058;-66
2022/09/24 11:36:19;;;;;;;16.20;11.38;;;20.70;99.90;;;;;;4985853;28;20034;-67
2022/09/24 11:38:46;;;;;;;18.10;11.73;;;21.10;99.90;;;;;;4973939;28;20121;-69
2022/09/24 11:41:20;;;;;;;13.27;10.85;;;21.40;99.90;;;;;;4955911;28;20042;-69
2022/09/24 11:44:02;;;;;;;13.57;11.63;;;21.60;99.90;;;;;;5005648;28;20093;-68
2022/09/24 11:46:33;;;;;;;12.45;10.70;;;21.40;99.90;;;;;;4991450;28;20120;-67
2022/09/24 11:49:34;;;;;;;12.80;11.35;;;21.10;99.90;;;;;;4993455;28;20121;-70
2022/09/24 11:52:39;;;;;;;12.65;10.80;;;21.10;99.90;;;;;;4971372;28;20117;-68
2022/09/24 11:55:21;;;;;;;10.60;9.50;;;20.60;99.90;;;;;;4987198;28;20058;-67
2022/09/24 11:57:56;;;;;;;14.60;10.90;;;21.00;99.90;;;;;;5006058;28;20048;-67
2022/09/24 12:00:30;;;;;;;13.25;10.75;;;20.90;99.90;;;;;;4990084;28;20655;-66
2022/09/24 12:03:07;;;;;;;12.48;10.60;;;21.10;99.90;;;;;;4972654;28;20049;-67
2022/09/24 12:05:51;;;;;;;13.48;10.68;;;21.20;99.90;;;;;;4977079;28;20469;-67
2022/09/24 12:08:28;;;;;;;13.80;11.20;;;21.00;99.90;;;;;;4970984;28;20069;-67
2022/09/24 12:10:55;;;;;;;13.88;11.32;;;20.90;99.90;;;;;;4988927;28;20052;-68
2022/09/24 12:13:44;;;;;;;11.80;10.50;;;21.00;99.90;;;;;;4986422;28;20461;-69
2022/09/24 12:16:13;;;;;;;13.85;11.85;;;20.80;99.90;;;;;;5004475;28;20717;-67
2022/09/24 12:18:46;;;;;;;13.20;10.57;;;20.90;99.90;;;;;;4976281;28;20433;-67
2022/09/24 12:21:28;;;;;;;12.10;10.90;;;20.90;99.90;;;;;;4987799;28;20073;-67
2022/09/24 12:24:02;;;;;;;11.30;10.18;;;21.20;99.90;;;;;;4987076;28;20041;-69
2022/09/24 12:26:34;;;;;;;13.75;10.43;;;21.30;99.90;;;;;;5003015;28;20077;-68
2022/09/24 12:35:13;;;;;;;13.63;11.20;;;22.40;99.90;;;;;;5002528;28;20061;-68
2022/09/24 12:37:44;;;;;;;15.20;11.00;;;22.10;99.90;;;;;;4961706;28;20526;-67
2022/09/24 12:40:11;;;;;;;12.65;10.98;;;21.80;99.90;;;;;;4970018;28;20050;-67
2022/09/24 12:42:44;;;;;;;12.20;10.90;;;21.90;99.90;;;;;;4986092;28;20054;-67
2022/09/24 12:45:16;;;;;;;11.48;10.25;;;22.10;99.90;;;;;;4987673;28;20053;-67
2022/09/24 12:47:58;;;;;;;11.98;10.70;;;22.00;99.90;;;;;;4990214;28;20488;-68
2022/09/24 12:50:33;;;;;;;14.93;10.27;;;22.30;99.90;;;;;;4990335;28;20050;-69
2022/09/24 12:53:00;;;;;;;12.50;10.75;;;22.50;99.90;;;;;;4988291;28;20053;-68
2022/09/24 12:55:31;;;;;;;11.52;9.90;;;21.90;99.90;;;;;;4989602;28;20513;-68
2022/09/24 12:58:26;;;;;;;10.88;9.45;;;21.50;99.90;;;;;;4986718;28;20074;-67
2022/09/24 13:01:11;;;;;;;11.80;10.02;;;21.60;99.90;;;;;;4962232;28;20042;-69
2022/09/24 13:03:41;;;;;;;11.32;9.98;;;21.60;99.90;;;;;;4988714;28;20061;-67
2022/09/24 13:06:36;;;;;;;12.40;10.05;;;21.00;99.90;;;;;;4986652;28;20416;-67
2022/09/24 13:09:23;;;;;;;10.95;9.68;;;20.80;99.90;;;;;;4978343;28;20055;-68
2022/09/24 13:12:17;;;;;;;12.38;10.20;;;21.30;99.90;;;;;;4986263;28;20054;-67
2022/09/24 13:15:00;;;;;;;9.45;8.55;;;21.80;99.90;;;;;;4987554;28;20038;-68
2022/09/24 13:17:32;;;;;;;10.32;9.32;;;22.40;99.90;;;;;;4990250;28;20472;-68
2022/09/24 13:20:14;;;;;;;9.18;7.93;;;22.40;99.90;;;;;;4988324;28;20399;-68
2022/09/24 13:22:42;;;;;;;11.00;8.85;;;22.40;99.90;;;;;;4990551;28;20400;-68
2022/09/24 13:25:09;;;;;;;11.07;8.80;;;22.40;99.90;;;;;;4985264;28;20042;-67
2022/09/24 13:27:40;;;;;;;10.50;9.15;;;22.10;99.90;;;;;;5001376;28;20042;-68
2022/09/24 13:30:34;;;;;;;13.48;9.50;;;21.50;99.90;;;;;;4987504;28;20074;-67
2022/09/24 13:33:16;;;;;;;10.35;9.00;;;21.40;99.90;;;;;;5002366;28;20465;-67